createdAt,value
2022-08-30T00:28:50.580Z,11
2022-08-30T00:58:05.432Z,11
2022-08-30T01:27:17.425Z,13
2022-08-30T01:56:28.603Z,11
2022-08-30T02:25:38.289Z,13
2022-08-30T02:54:48.423Z,15
2022-08-30T03:23:32.828Z,14
2022-08-30T03:52:44.712Z,16
2022-08-30T04:21:57.934Z,14
2022-08-30T04:51:01.333Z,14
2022-08-30T05:20:09.496Z,16
2022-08-30T05:49:17.218Z,17
2022-08-30T06:18:29.073Z,13
2022-08-30T06:47:40.789Z,13
2022-08-30T07:16:57.321Z,14
2022-08-30T07:46:15.419Z,13
2022-08-30T08:15:29.836Z,14
2022-08-30T08:44:42.358Z,13
2022-08-30T09:13:53.929Z,11
2022-08-30T09:43:06.433Z,13
2022-08-30T10:12:26.256Z,10
2022-08-30T10:41:32.328Z,13
2022-08-30T11:10:32.078Z,11
2022-08-30T11:39:39.457Z,13
2022-08-30T12:08:33.270Z,13
2022-08-30T12:37:52.458Z,13
2022-08-30T13:06:59.329Z,13
2022-08-30T13:36:02.519Z,11
2022-08-30T14:05:06.611Z,10
2022-08-30T14:33:49.061Z,10
2022-08-30T15:02:51.595Z,10
2022-08-30T15:31:43.114Z,11
2022-08-30T16:00:32.074Z,11
2022-08-30T16:29:33.725Z,11
2022-08-30T16:58:24.803Z,11
2022-08-30T17:26:58.597Z,13
2022-08-30T17:55:43.667Z,11
2022-08-30T18:24:37.117Z,13
2022-08-30T18:53:38.354Z,14
2022-08-30T19:23:09.390Z,13
2022-08-30T19:51:23.099Z,13
2022-08-30T20:20:29.527Z,11
2022-08-30T20:49:25.106Z,11
2022-08-30T21:18:35.190Z,11
2022-08-30T21:47:41.323Z,17
2022-08-30T22:16:45.115Z,19
2022-08-30T22:45:45.212Z,18
2022-08-30T23:14:55.297Z,18
2022-08-30T23:44:07.144Z,20
